Time;durP1;ratioP1;P1;durP2;ratioP2;P2;SDS_P1;SDS_P2;PMS_P1;PMS_P2;Temp;Humidity;BMP_temperature;BMP_pressure;BME280_temperature;BME280_humidity;BME280_pressure;Samples;Min_cycle;Max_cycle;Signal;HPM_P1;HPM_P2
2020/12/24 00:01:40;;;;;;;;;;;5.20;99.90;;;;;;5089500;28;19920;-78
2020/12/24 00:04:06;;;;;;;;;;;5.10;99.90;;;;;;5088920;28;19993;-78
2020/12/24 00:06:32;;;;;;;;;;;5.10;99.90;;;;;;5088361;28;19930;-78
2020/12/24 00:08:57;;;;;;;;;;;5.10;99.90;;;;;;5104403;28;20269;-78
2020/12/24 00:11:24;;;;;;;;;;;5.10;99.90;;;;;;5089243;28;19927;-78
2020/12/24 00:13:49;;;;;;;;;;;5.10;99.90;;;;;;5086121;28;19946;-79
2020/12/24 00:16:15;;;;;;;;;;;5.10;99.90;;;;;;5120596;27;19920;-79
2020/12/24 00:18:40;;;;;;;;;;;5.00;99.90;;;;;;5104607;28;19963;-79
2020/12/24 00:21:09;;;;;;;;;;;5.00;99.90;;;;;;5079479;28;19927;-79
2020/12/24 00:23:35;;;;;;;;;;;5.00;99.90;;;;;;5084881;28;19977;-79
2020/12/24 00:26:03;;;;;;;;;;;5.00;99.90;;;;;;5080107;28;19927;-79
2020/12/24 00:28:30;;;;;;;;;;;5.00;99.90;;;;;;5089329;28;19920;-79
2020/12/24 00:30:56;;;;;;;;;;;5.00;99.90;;;;;;5087753;28;19923;-78
2020/12/24 00:33:22;;;;;;;;;;;5.00;99.90;;;;;;5083538;28;19927;-80
2020/12/24 00:35:47;;;;;;;;;;;5.10;99.90;;;;;;5085222;28;19916;-80
2020/12/24 00:38:14;;;;;;;;;;;5.00;99.90;;;;;;5090817;28;19969;-80
2020/12/24 00:40:40;;;;;;;;;;;5.00;99.90;;;;;;5088298;28;19920;-79
2020/12/24 00:43:06;;;;;;;;;;;5.00;99.90;;;;;;5085513;28;20039;-79
2020/12/24 00:45:32;;;;;;;;;;;5.00;99.90;;;;;;5091963;28;19975;-79
2020/12/24 00:47:57;;;;;;;;;;;4.90;99.90;;;;;;5091750;28;19923;-79
2020/12/24 00:50:23;;;;;;;;;;;5.10;99.90;;;;;;5093003;28;19920;-79
2020/12/24 00:52:49;;;;;;;;;;;4.90;99.90;;;;;;5092105;28;19915;-78
2020/12/24 00:55:14;;;;;;;;;;;4.90;99.90;;;;;;5089844;28;20015;-78
2020/12/24 00:57:40;;;;;;;;;;;4.90;99.90;;;;;;5092379;28;20269;-79
2020/12/24 01:00:07;;;;;;;;;;;4.90;99.90;;;;;;5091452;28;19984;-79
2020/12/24 01:02:33;;;;;;;;;;;4.90;99.90;;;;;;5093142;28;20020;-79
2020/12/24 01:04:58;;;;;;;;;;;4.90;99.90;;;;;;5092322;28;20102;-79
2020/12/24 01:07:24;;;;;;;;;;;4.90;99.90;;;;;;5092400;28;19916;-80
2020/12/24 01:09:50;;;;;;;;;;;4.90;99.90;;;;;;5082704;28;20710;-80
2020/12/24 01:12:16;;;;;;;;;;;4.80;99.90;;;;;;5091962;28;20332;-80
2020/12/24 01:14:42;;;;;;;;;;;4.90;99.90;;;;;;5115490;27;19951;-80
2020/12/24 01:17:08;;;;;;;;;;;4.80;99.90;;;;;;5120428;27;20391;-80
2020/12/24 01:19:34;;;;;;;;;;;4.90;99.90;;;;;;5095098;28;20040;-80
2020/12/24 01:21:59;;;;;;;;;;;4.80;99.90;;;;;;5094847;28;19916;-80
2020/12/24 01:24:25;;;;;;;;;;;4.80;99.90;;;;;;5110938;28;20361;-81
2020/12/24 01:26:51;;;;;;;;;;;4.80;99.90;;;;;;5091573;28;20326;-78
2020/12/24 01:29:16;;;;;;;;;;;4.80;99.90;;;;;;5085006;28;20315;-79
2020/12/24 01:31:45;;;;;;;;;;;4.80;99.90;;;;;;5088705;28;19920;-79
2020/12/24 01:34:12;;;;;;;;;;;4.80;99.90;;;;;;5118152;28;19974;-79
2020/12/24 01:36:37;;;;;;;;;;;4.80;99.90;;;;;;5101235;28;19923;-78
2020/12/24 01:39:03;;;;;;;;;;;4.80;99.90;;;;;;5089296;28;19916;-79
2020/12/24 01:41:29;;;;;;;;;;;4.80;99.90;;;;;;5090581;28;19929;-79
2020/12/24 01:43:55;;;;;;;;;;;4.70;99.90;;;;;;5090297;28;20323;-78
2020/12/24 01:46:21;;;;;;;;;;;4.70;99.90;;;;;;5106507;28;19916;-79
2020/12/24 01:48:46;;;;;;;;;;;4.70;99.90;;;;;;5084924;28;19916;-78
2020/12/24 01:51:18;;;;;;;;;;;4.60;99.90;;;;;;5071835;28;19916;-79
2020/12/24 01:53:44;;;;;;;;;;;4.60;99.90;;;;;;5092452;28;20015;-79
2020/12/24 01:56:09;;;;;;;;;;;4.50;99.90;;;;;;5110597;28;20010;-79
2020/12/24 01:58:35;;;;;;;;;;;4.50;99.90;;;;;;5094558;28;19919;-79
2020/12/24 02:01:01;;;;;;;;;;;4.50;99.90;;;;;;5093644;28;20015;-80
2020/12/24 02:03:26;;;;;;;;;;;4.50;99.90;;;;;;5094608;28;19973;-79
2020/12/24 02:05:52;;;;;;;;;;;4.50;99.90;;;;;;5093511;28;19916;-80
2020/12/24 02:08:18;;;;;;;;;;;4.50;99.90;;;;;;5089270;28;19923;-80
2020/12/24 02:10:44;;;;;;;;;;;4.50;99.90;;;;;;5116047;27;19923;-80
2020/12/24 02:13:09;;;;;;;;;;;4.40;99.90;;;;;;5101417;28;21304;-79
2020/12/24 02:15:35;;;;;;;;;;;4.40;99.90;;;;;;5093527;28;19916;-80
2020/12/24 02:18:01;;;;;;;;;;;4.40;99.90;;;;;;5093660;28;19916;-79
2020/12/24 02:20:27;;;;;;;;;;;4.40;99.90;;;;;;5094746;28;19916;-78
2020/12/24 02:22:53;;;;;;;;;;;4.30;99.90;;;;;;5093080;28;19916;-79
2020/12/24 02:25:19;;;;;;;;;;;4.30;99.90;;;;;;5082254;28;19916;-79
2020/12/24 02:27:44;;;;;;;;;;;4.40;99.90;;;;;;5091049;28;19935;-79
2020/12/24 02:30:10;;;;;;;;;;;4.30;99.90;;;;;;5108595;28;19922;-78
2020/12/24 02:32:36;;;;;;;;;;;4.30;99.90;;;;;;5081324;28;19924;-78
2020/12/24 02:35:02;;;;;;;;;;;4.40;99.90;;;;;;5091925;28;19922;-78
2020/12/24 02:37:27;;;;;;;;;;;4.20;99.90;;;;;;5086769;28;20288;-78
2020/12/24 02:39:53;;;;;;;;;;;4.20;99.90;;;;;;5093761;28;19916;-77
2020/12/24 02:42:19;;;;;;;;;;;4.20;99.90;;;;;;5108631;28;19951;-78
2020/12/24 02:44:46;;;;;;;;;;;4.20;99.90;;;;;;5094419;28;19986;-78
2020/12/24 02:47:12;;;;;;;;;;;4.10;99.90;;;;;;5093040;28;19922;-78
2020/12/24 02:49:39;;;;;;;;;;;4.10;99.90;;;;;;5093380;28;19920;-78
2020/12/24 02:52:04;;;;;;;;;;;4.10;99.90;;;;;;5108383;28;19916;-79
2020/12/24 02:54:30;;;;;;;;;;;4.10;99.90;;;;;;5093841;28;19926;-79
2020/12/24 02:56:56;;;;;;;;;;;4.10;99.90;;;;;;5093432;28;19954;-79
2020/12/24 02:59:21;;;;;;;;;;;4.10;99.90;;;;;;5094277;28;19916;-78
2020/12/24 03:01:47;;;;;;;;;;;4.10;99.90;;;;;;5115903;27;20368;-80
2020/12/24 03:04:13;;;;;;;;;;;4.10;99.90;;;;;;5091223;28;19916;-78
2020/12/24 03:06:38;;;;;;;;;;;4.10;99.90;;;;;;5120634;27;20026;-78
2020/12/24 03:09:04;;;;;;;;;;;4.10;99.90;;;;;;5093794;28;19916;-78
2020/12/24 03:11:30;;;;;;;;;;;4.20;99.90;;;;;;5122969;27;20272;-79
2020/12/24 03:13:55;;;;;;;;;;;4.10;99.90;;;;;;5092657;28;20038;-79
2020/12/24 03:16:21;;;;;;;;;;;4.10;99.90;;;;;;5092934;28;19923;-79
2020/12/24 03:18:47;;;;;;;;;;;4.20;99.90;;;;;;5102607;28;20389;-79
2020/12/24 03:21:13;;;;;;;;;;;4.20;99.90;;;;;;5083097;28;20057;-79
2020/12/24 03:23:38;;;;;;;;;;;4.30;99.90;;;;;;5078096;28;19947;-79
2020/12/24 03:26:07;;;;;;;;;;;4.20;99.90;;;;;;5092418;28;20015;-79
2020/12/24 03:28:32;;;;;;;;;;;4.20;99.90;;;;;;5094328;28;20045;-79
2020/12/24 03:30:58;;;;;;;;;;;4.20;99.90;;;;;;5086844;28;19967;-80
2020/12/24 03:33:24;;;;;;;;;;;4.20;99.90;;;;;;5107458;28;19920;-80
2020/12/24 03:35:49;;;;;;;;;;;4.20;99.90;;;;;;5092775;28;19916;-80
2020/12/24 03:38:15;;;;;;;;;;;4.20;99.90;;;;;;5092202;28;19926;-80
2020/12/24 03:40:41;;;;;;;;;;;4.20;99.90;;;;;;5091275;28;19920;-81
2020/12/24 03:43:06;;;;;;;;;;;4.30;99.90;;;;;;5107698;28;20258;-80
2020/12/24 03:45:32;;;;;;;;;;;4.20;99.90;;;;;;5092903;28;19924;-81
2020/12/24 03:47:58;;;;;;;;;;;4.20;99.90;;;;;;5108608;28;19916;-80
2020/12/24 03:50:24;;;;;;;;;;;4.20;99.90;;;;;;5090904;28;19955;-80
2020/12/24 03:52:49;;;;;;;;;;;4.20;99.90;;;;;;5093035;28;19939;-79
2020/12/24 03:55:15;;;;;;;;;;;4.20;99.90;;;;;;5083947;28;20023;-80
2020/12/24 03:57:41;;;;;;;;;;;4.20;99.90;;;;;;5092600;28;19923;-79
2020/12/24 04:00:06;;;;;;;;;;;4.20;99.90;;;;;;5105149;28;19916;-79
2020/12/24 04:02:32;;;;;;;;;;;4.10;99.90;;;;;;5122614;27;19920;-79
2020/12/24 04:04:58;;;;;;;;;;;4.20;99.90;;;;;;5092080;28;20365;-78
2020/12/24 04:07:23;;;;;;;;;;;4.20;99.90;;;;;;5092362;28;19995;-79
2020/12/24 04:09:49;;;;;;;;;;;4.10;99.90;;;;;;5090851;28;19915;-78
2020/12/24 04:12:14;;;;;;;;;;;4.10;99.90;;;;;;5091970;28;19926;-78
2020/12/24 04:14:40;;;;;;;;;;;4.10;99.90;;;;;;5108913;28;19920;-77
2020/12/24 04:17:06;;;;;;;;;;;4.10;99.90;;;;;;5079508;28;20316;-78
2020/12/24 04:19:31;;;;;;;;;;;4.10;99.90;;;;;;5100659;28;19924;-79
2020/12/24 04:21:57;;;;;;;;;;;4.10;99.90;;;;;;5091119;28;20340;-80
2020/12/24 04:24:22;;;;;;;;;;;4.10;99.90;;;;;;5105289;28;19966;-80
2020/12/24 04:26:48;;;;;;;;;;;4.10;99.90;;;;;;5090573;28;19946;-80
2020/12/24 04:29:14;;;;;;;;;;;4.00;99.90;;;;;;5087655;28;19935;-80
2020/12/24 04:31:40;;;;;;;;;;;4.00;99.90;;;;;;5089626;28;20426;-80
2020/12/24 04:34:06;;;;;;;;;;;4.10;99.90;;;;;;5082781;28;19920;-80
2020/12/24 04:36:31;;;;;;;;;;;4.10;99.90;;;;;;5106296;28;19924;-80
2020/12/24 04:38:57;;;;;;;;;;;4.00;99.90;;;;;;5090830;28;19920;-80
2020/12/24 04:41:23;;;;;;;;;;;4.00;99.90;;;;;;5090873;28;20451;-79
2020/12/24 04:43:48;;;;;;;;;;;4.00;99.90;;;;;;5091713;28;20299;-80
2020/12/24 04:46:16;;;;;;;;;;;3.90;99.90;;;;;;5080098;28;19930;-80
2020/12/24 04:48:43;;;;;;;;;;;3.90;99.90;;;;;;5125332;27;19916;-79
2020/12/24 04:51:09;;;;;;;;;;;3.90;99.90;;;;;;5106314;28;19915;-79
2020/12/24 04:53:36;;;;;;;;;;;4.20;99.90;;;;;;5090871;28;20015;-80
2020/12/24 04:56:02;;;;;;;;;;;3.90;99.90;;;;;;5090760;28;19916;-80
2020/12/24 04:58:28;;;;;;;;;;;3.90;99.90;;;;;;5123739;27;19969;-80
2020/12/24 05:00:54;;;;;;;;;;;4.20;99.90;;;;;;5091152;28;20322;-81
2020/12/24 05:03:19;;;;;;;;;;;3.90;99.90;;;;;;5088766;28;19923;-80
2020/12/24 05:05:45;;;;;;;;;;;4.00;99.90;;;;;;5091875;28;20345;-79
2020/12/24 05:08:11;;;;;;;;;;;3.90;99.90;;;;;;5089507;28;19916;-79
2020/12/24 05:10:37;;;;;;;;;;;4.00;99.90;;;;;;5102514;28;20027;-80
2020/12/24 05:13:16;;;;;;;;;;;4.00;99.90;;;;;;5086037;28;19920;-80
2020/12/24 05:15:42;;;;;;;;;;;3.90;99.90;;;;;;5090894;28;19920;-79
2020/12/24 05:18:23;;;;;;;;;;;3.90;99.90;;;;;;5098726;28;19915;-79
2020/12/24 05:20:52;;;;;;;;;;;3.90;99.90;;;;;;5090389;28;19923;-79
2020/12/24 05:23:18;;;;;;;;;;;4.00;99.90;;;;;;5104772;28;19923;-79
2020/12/24 05:25:45;;;;;;;;;;;4.00;99.90;;;;;;5091719;28;20003;-80
2020/12/24 05:28:20;;;;;;;;;;;4.00;99.90;;;;;;5079749;28;19959;-78
2020/12/24 05:30:46;;;;;;;;;;;4.00;99.90;;;;;;5091180;28;19931;-77
2020/12/24 05:33:11;;;;;;;;;;;4.10;99.90;;;;;;5089509;28;19920;-76
2020/12/24 05:35:37;;;;;;;;;;;4.00;99.90;;;;;;5090870;28;19916;-77
2020/12/24 05:38:03;;;;;;;;;;;4.00;99.90;;;;;;5082575;28;19955;-76
2020/12/24 05:40:30;;;;;;;;;;;4.90;99.90;;;;;;5123201;28;19920;-76
2020/12/24 05:42:57;;;;;;;;;;;4.00;99.90;;;;;;5117213;28;19959;-76
2020/12/24 05:45:24;;;;;;;;;;;4.00;99.90;;;;;;5090371;28;19923;-76
2020/12/24 05:48:22;;;;;;;;;;;4.30;99.90;;;;;;5090705;28;20566;-76
2020/12/24 05:50:48;;;;;;;;;;;4.00;99.90;;;;;;5078649;28;19915;-76
2020/12/24 05:53:15;;;;;;;;;;;4.00;99.90;;;;;;5090391;28;19982;-76
2020/12/24 05:55:41;;;;;;;;;;;4.00;99.90;;;;;;5091329;28;19957;-76
2020/12/24 05:58:07;;;;;;;;;;;4.00;99.90;;;;;;5089861;28;19924;-76
2020/12/24 06:00:37;;;;;;;;;;;4.00;99.90;;;;;;5123564;28;19916;-76
2020/12/24 06:03:08;;;;;;;;;;;3.90;99.90;;;;;;5081387;28;19923;-75
2020/12/24 06:05:45;;;;;;;;;;;3.90;99.90;;;;;;5077327;28;19942;-76
2020/12/24 06:08:17;;;;;;;;;;;3.90;99.90;;;;;;5087715;28;19916;-76
2020/12/24 06:10:46;;;;;;;;;;;3.90;99.90;;;;;;5090211;28;19947;-76
2020/12/24 06:13:25;;;;;;;;;;;4.00;99.90;;;;;;5088561;28;19916;-76
2020/12/24 06:15:50;;;;;;;;;;;4.00;99.90;;;;;;5089444;28;19920;-76
2020/12/24 06:18:17;;;;;;;;;;;4.00;99.90;;;;;;5089761;28;19924;-76
2020/12/24 06:20:43;;;;;;;;;;;4.00;99.90;;;;;;5107001;28;20313;-76
2020/12/24 06:23:10;;;;;;;;;;;4.00;99.90;;;;;;5090049;28;19951;-76
2020/12/24 06:25:35;;;;;;;;;;;4.00;99.90;;;;;;5091203;28;20023;-77
2020/12/24 06:28:02;;;;;;;;;;;4.00;99.90;;;;;;5085042;28;20383;-77
2020/12/24 06:30:29;;;;;;;;;;;4.10;99.90;;;;;;5106427;28;20024;-77
2020/12/24 06:32:54;;;;;;;;;;;4.10;99.90;;;;;;5088439;28;19924;-77
2020/12/24 06:35:49;;;;;;;;;;;4.10;99.90;;;;;;5089597;28;19922;-76
2020/12/24 06:38:15;;;;;;;;;;;4.10;99.90;;;;;;5078829;28;19920;-77
2020/12/24 06:40:41;;;;;;;;;;;4.10;99.90;;;;;;5125418;27;19916;-77
2020/12/24 06:43:10;;;;;;;;;;;4.10;99.90;;;;;;5091217;28;20264;-77
2020/12/24 06:45:36;;;;;;;;;;;4.10;99.90;;;;;;5093904;28;19916;-77
2020/12/24 06:48:16;;;;;;;;;;;4.20;99.90;;;;;;5083878;28;19943;-78
2020/12/24 06:50:41;;;;;;;;;;;4.20;99.90;;;;;;5092836;28;19916;-78
2020/12/24 06:53:23;;;;;;;;;;;4.20;99.90;;;;;;5092251;28;20032;-78
2020/12/24 06:56:07;;;;;;;;;;;4.20;99.90;;;;;;5094015;28;19971;-78
2020/12/24 06:58:38;;;;;;;;;;;4.20;99.90;;;;;;5093891;28;20014;-77
2020/12/24 07:01:04;;;;;;;;;;;4.20;99.90;;;;;;5092777;28;20025;-77
2020/12/24 07:03:30;;;;;;;;;;;4.30;99.90;;;;;;5086454;28;19916;-77
2020/12/24 07:05:56;;;;;;;;;;;4.30;99.90;;;;;;5093267;28;20077;-78
2020/12/24 07:08:31;;;;;;;;;;;4.30;99.90;;;;;;5090380;28;20404;-77
2020/12/24 07:10:57;;;;;;;;;;;4.30;99.90;;;;;;5107309;28;20033;-77
2020/12/24 07:13:32;;;;;;;;;;;4.30;99.90;;;;;;5092469;28;19920;-77
2020/12/24 07:15:57;;;;;;;;;;;4.30;99.90;;;;;;5092051;28;19916;-77
2020/12/24 07:18:23;;;;;;;;;;;4.30;99.90;;;;;;5097041;28;19922;-77
2020/12/24 07:20:50;;;;;;;;;;;4.30;99.90;;;;;;5117519;27;19965;-77
2020/12/24 07:23:26;;;;;;;;;;;4.20;99.90;;;;;;5087855;28;20373;-77
2020/12/24 07:25:53;;;;;;;;;;;4.20;99.90;;;;;;5093294;28;20261;-77
2020/12/24 07:28:18;;;;;;;;;;;4.20;99.90;;;;;;5091549;28;19950;-76
2020/12/24 07:30:54;;;;;;;;;;;4.10;99.90;;;;;;5088957;28;20379;-76
2020/12/24 07:33:19;;;;;;;;;;;4.10;99.90;;;;;;5092287;28;19930;-77
2020/12/24 07:35:45;;;;;;;;;;;4.00;99.90;;;;;;5092405;28;20339;-77
2020/12/24 07:38:11;;;;;;;;;;;4.10;99.90;;;;;;5105544;28;19923;-76
2020/12/24 07:40:36;;;;;;;;;;;4.10;99.90;;;;;;5091903;28;19919;-77
2020/12/24 07:43:09;;;;;;;;;;;4.10;99.90;;;;;;5092636;28;19965;-76
2020/12/24 07:45:35;;;;;;;;;;;4.30;99.90;;;;;;5092068;28;19926;-77
2020/12/24 07:48:00;;;;;;;;;;;4.40;99.90;;;;;;5091469;28;19998;-76
2020/12/24 07:50:31;;;;;;;;;;;4.50;99.90;;;;;;5090742;28;19928;-76
2020/12/24 07:52:56;;;;;;;;;;;4.60;99.90;;;;;;5082654;28;19920;-76
2020/12/24 07:55:22;;;;;;;;;;;4.70;99.90;;;;;;5087981;28;19946;-77
2020/12/24 07:57:48;;;;;;;;;;;4.80;99.90;;;;;;5099041;28;19916;-77
2020/12/24 08:00:13;;;;;;;;;;;4.70;99.90;;;;;;5089458;28;20426;-77
2020/12/24 08:02:39;;;;;;;;;;;4.70;99.90;;;;;;5091631;28;19991;-78
2020/12/24 08:05:05;;;;;;;;;;;4.70;99.90;;;;;;5096388;28;20275;-79
2020/12/24 08:07:31;;;;;;;;;;;4.70;99.90;;;;;;5107068;28;19920;-79
2020/12/24 08:10:10;;;;;;;;;;;4.60;99.90;;;;;;5091865;28;19923;-79
2020/12/24 08:12:35;;;;;;;;;;;4.60;99.90;;;;;;5094620;28;19915;-80
2020/12/24 08:15:11;;;;;;;;;;;4.60;99.90;;;;;;5089925;28;19943;-79
2020/12/24 08:17:58;;;;;;;;;;;4.50;99.90;;;;;;5104220;28;19915;-79
2020/12/24 08:20:28;;;;;;;;;;;4.50;99.90;;;;;;5088999;28;19964;-78
2020/12/24 08:23:00;;;;;;;;;;;4.50;99.90;;;;;;5090701;28;19916;-77
2020/12/24 08:25:27;;;;;;;;;;;4.50;99.90;;;;;;5089444;28;20143;-77
2020/12/24 08:27:53;;;;;;;;;;;4.50;99.90;;;;;;5090459;28;19939;-77
2020/12/24 08:30:19;;;;;;;;;;;4.50;99.90;;;;;;5090245;28;19968;-77
2020/12/24 08:32:45;;;;;;;;;;;4.60;99.90;;;;;;5090856;28;19971;-78
2020/12/24 08:35:11;;;;;;;;;;;4.70;99.90;;;;;;5122370;27;20261;-78
2020/12/24 08:37:37;;;;;;;;;;;4.70;99.90;;;;;;5089359;28;20296;-77
2020/12/24 08:40:18;;;;;;;;;;;4.90;99.90;;;;;;5090939;28;19927;-74
2020/12/24 08:42:45;;;;;;;;;;;5.00;99.90;;;;;;5090321;28;19922;-78
2020/12/24 08:45:12;;;;;;;;;;;5.10;99.90;;;;;;5106319;28;19916;-78
2020/12/24 08:47:38;;;;;;;;;;;5.10;99.90;;;;;;5114519;27;19916;-80
2020/12/24 08:50:04;;;;;;;;;;;5.20;99.90;;;;;;5080095;28;19919;-79
2020/12/24 08:52:34;;;;;;;;;;;5.30;99.90;;;;;;5087702;28;19926;-80
2020/12/24 08:55:08;;;;;;;;;;;5.30;99.90;;;;;;5088442;28;20262;-79
2020/12/24 08:57:34;;;;;;;;;;;5.40;99.90;;;;;;5086583;28;19923;-80
2020/12/24 09:00:01;;;;;;;;;;;5.40;99.90;;;;;;5090701;28;19922;-80
2020/12/24 09:02:32;;;;;;;;;;;5.40;99.90;;;;;;5089153;28;19916;-80
2020/12/24 09:04:59;;;;;;;;;;;5.40;99.90;;;;;;5087691;28;19941;-80
2020/12/24 09:07:28;;;;;;;;;;;5.40;99.90;;;;;;5088589;28;19920;-80
2020/12/24 09:10:01;;;;;;;;;;;5.40;99.90;;;;;;5090192;28;19916;-80
2020/12/24 09:12:27;;;;;;;;;;;5.50;99.90;;;;;;5084295;28;19923;-80
2020/12/24 09:15:04;;;;;;;;;;;5.50;99.90;;;;;;5122649;27;19998;-80
2020/12/24 09:17:30;;;;;;;;;;;5.50;99.90;;;;;;5090500;28;19916;-80
2020/12/24 09:20:03;;;;;;;;;;;5.60;99.90;;;;;;5092384;28;19931;-80
2020/12/24 09:22:29;;;;;;;;;;;5.60;99.90;;;;;;5121559;27;20364;-81
2020/12/24 09:24:54;;;;;;;;;;;5.70;99.90;;;;;;5123213;27;19920;-81
2020/12/24 09:27:20;;;;;;;;;;;5.90;99.90;;;;;;5083998;28;19920;-81
2020/12/24 09:29:47;;;;;;;;;;;5.70;99.90;;;;;;5102392;28;19920;-81
2020/12/24 09:32:13;;;;;;;;;;;5.70;99.90;;;;;;5089845;28;19981;-81
2020/12/24 09:34:39;;;;;;;;;;;5.70;99.90;;;;;;5119428;28;19928;-81
2020/12/24 09:37:05;;;;;;;;;;;5.70;99.90;;;;;;5113903;28;19923;-81
2020/12/24 09:39:30;;;;;;;;;;;5.70;99.90;;;;;;5089756;28;19959;-81
2020/12/24 09:41:56;;;;;;;;;;;5.90;99.90;;;;;;5105368;28;19981;-81
2020/12/24 09:44:23;;;;;;;;;;;5.70;99.90;;;;;;5089956;28;19942;-81
2020/12/24 09:46:49;;;;;;;;;;;5.70;99.90;;;;;;5087614;28;19942;-81
2020/12/24 09:49:16;;;;;;;;;;;5.60;99.90;;;;;;5087487;28;20353;-80
2020/12/24 09:51:42;;;;;;;;;;;5.70;99.90;;;;;;5089349;28;20105;-80
2020/12/24 09:54:08;;;;;;;;;;;5.70;99.90;;;;;;5110372;28;19914;-80
2020/12/24 09:56:34;;;;;;;;;;;5.70;99.90;;;;;;5095527;28;19955;-81
2020/12/24 09:59:00;;;;;;;;;;;5.70;99.90;;;;;;5090107;28;19916;-81
2020/12/24 10:01:26;;;;;;;;;;;5.80;99.90;;;;;;5089709;28;19950;-80
2020/12/24 10:03:52;;;;;;;;;;;5.80;99.90;;;;;;5092226;28;20269;-80
2020/12/24 10:06:17;;;;;;;;;;;5.80;99.90;;;;;;5132647;28;19957;-81
2020/12/24 10:08:43;;;;;;;;;;;5.90;99.90;;;;;;5074141;28;20202;-81
2020/12/24 10:11:13;;;;;;;;;;;6.00;99.90;;;;;;5090255;28;20388;-81
2020/12/24 10:13:39;;;;;;;;;;;6.10;99.90;;;;;;5089928;28;19924;-81
2020/12/24 10:16:04;;;;;;;;;;;6.10;99.90;;;;;;5094927;28;20009;-80
2020/12/24 10:18:30;;;;;;;;;;;6.10;99.90;;;;;;5079984;28;20457;-81
2020/12/24 10:20:56;;;;;;;;;;;6.20;99.90;;;;;;5093966;28;19919;-81
2020/12/24 10:23:22;;;;;;;;;;;6.20;99.90;;;;;;5106301;28;19916;-81
2020/12/24 10:25:48;;;;;;;;;;;6.20;99.90;;;;;;5127951;27;20376;-81
2020/12/24 10:28:15;;;;;;;;;;;6.20;99.90;;;;;;5091565;28;20388;-81
2020/12/24 10:30:42;;;;;;;;;;;6.20;99.90;;;;;;5088162;28;19917;-81
2020/12/24 10:33:07;;;;;;;;;;;6.20;99.90;;;;;;5092006;28;20365;-81
2020/12/24 10:35:35;;;;;;;;;;;6.20;99.90;;;;;;5084600;28;19922;-81
2020/12/24 10:38:04;;;;;;;;;;;6.20;99.90;;;;;;5107770;28;19920;-81
2020/12/24 10:40:30;;;;;;;;;;;6.20;99.90;;;;;;5095928;28;19956;-81
2020/12/24 10:42:57;;;;;;;;;;;6.30;99.90;;;;;;5093112;28;20238;-81
2020/12/24 10:45:22;;;;;;;;;;;6.20;99.90;;;;;;5108362;28;19916;-81
2020/12/24 10:47:48;;;;;;;;;;;6.20;99.90;;;;;;5083358;28;19917;-81
2020/12/24 10:50:15;;;;;;;;;;;6.10;99.90;;;;;;5107519;28;19999;-80
2020/12/24 10:52:41;;;;;;;;;;;6.10;99.90;;;;;;5116926;27;20034;-81
2020/12/24 10:55:07;;;;;;;;;;;6.10;99.90;;;;;;5088978;28;19920;-81
2020/12/24 10:57:33;;;;;;;;;;;6.10;99.90;;;;;;5125117;27;19926;-81
2020/12/24 10:59:58;;;;;;;;;;;6.10;99.90;;;;;;5091892;28;19947;-81
2020/12/24 11:02:24;;;;;;;;;;;6.10;99.90;;;;;;5108016;28;19962;-81
2020/12/24 11:04:50;;;;;;;;;;;6.10;99.90;;;;;;5087208;28;19969;-81
2020/12/24 11:07:15;;;;;;;;;;;6.10;99.90;;;;;;5085634;28;19920;-81
2020/12/24 11:09:41;;;;;;;;;;;6.10;99.90;;;;;;5104975;28;20348;-81
2020/12/24 11:12:07;;;;;;;;;;;6.10;99.90;;;;;;5095278;28;19916;-81
2020/12/24 11:14:33;;;;;;;;;;;6.10;99.90;;;;;;5089248;28;19920;-81
2020/12/24 11:16:59;;;;;;;;;;;6.10;99.90;;;;;;5122376;27;19969;-81
2020/12/24 11:19:25;;;;;;;;;;;6.10;99.90;;;;;;5090710;28;20340;-81
2020/12/24 11:21:51;;;;;;;;;;;6.20;99.90;;;;;;5095345;28;19915;-80
2020/12/24 11:24:17;;;;;;;;;;;6.60;99.90;;;;;;5094765;28;20495;-80
2020/12/24 11:26:42;;;;;;;;;;;6.20;99.90;;;;;;5095679;28;20269;-81
2020/12/24 11:29:08;;;;;;;;;;;6.20;99.90;;;;;;5088930;28;19924;-81
2020/12/24 11:31:35;;;;;;;;;;;6.20;99.90;;;;;;5090952;28;19931;-80
2020/12/24 11:34:01;;;;;;;;;;;6.90;99.90;;;;;;5082215;28;19965;-80
2020/12/24 11:36:27;;;;;;;;;;;6.30;99.90;;;;;;5088125;28;19923;-80
2020/12/24 11:38:54;;;;;;;;;;;6.50;99.90;;;;;;5091687;28;19916;-81
2020/12/24 11:41:21;;;;;;;;;;;6.40;99.90;;;;;;5090297;28;19922;-80
2020/12/24 11:43:47;;;;;;;;;;;6.40;99.90;;;;;;5085830;28;19919;-80
2020/12/24 11:46:14;;;;;;;;;;;6.50;99.50;;;;;;5089828;28;20285;-81
2020/12/24 11:48:40;;;;;;;;;;;6.40;99.90;;;;;;5090896;28;19927;-81
2020/12/24 11:51:09;;;;;;;;;;;6.40;99.90;;;;;;5089375;28;19916;-81
2020/12/24 11:53:35;;;;;;;;;;;6.50;99.50;;;;;;5084085;28;20237;-83
2020/12/24 11:56:02;;;;;;;;;;;6.30;99.80;;;;;;5096827;28;20367;-82
2020/12/24 11:58:27;;;;;;;;;;;6.30;99.90;;;;;;5106945;28;19916;-82
2020/12/24 12:00:53;;;;;;;;;;;6.40;99.90;;;;;;5119473;27;19920;-82
2020/12/24 12:03:19;;;;;;;;;;;6.30;99.90;;;;;;5099925;28;19916;-82
2020/12/24 12:05:44;;;;;;;;;;;6.30;99.90;;;;;;5087516;28;19923;-82
2020/12/24 12:08:11;;;;;;;;;;;6.20;99.90;;;;;;5088266;28;20373;-82
2020/12/24 12:10:37;;;;;;;;;;;6.20;99.90;;;;;;5092312;28;19970;-82
2020/12/24 12:13:02;;;;;;;;;;;6.30;99.90;;;;;;5090196;28;19915;-82
2020/12/24 12:15:28;;;;;;;;;;;6.30;99.90;;;;;;5090819;28;19927;-82
2020/12/24 12:17:54;;;;;;;;;;;6.20;99.90;;;;;;5088226;28;19977;-81
2020/12/24 12:20:20;;;;;;;;;;;6.40;99.90;;;;;;5106050;28;19946;-81
2020/12/24 12:22:46;;;;;;;;;;;6.30;99.90;;;;;;5090081;28;20280;-81
2020/12/24 12:25:12;;;;;;;;;;;6.30;99.90;;;;;;5091608;28;19961;-82
2020/12/24 12:27:38;;;;;;;;;;;6.30;99.90;;;;;;5089349;28;19919;-81
2020/12/24 12:30:04;;;;;;;;;;;6.20;99.90;;;;;;5088823;28;19927;-81
2020/12/24 12:32:30;;;;;;;;;;;6.20;99.90;;;;;;5081374;28;20370;-81
2020/12/24 12:34:56;;;;;;;;;;;6.30;99.90;;;;;;5087702;28;19955;-81
2020/12/24 12:37:21;;;;;;;;;;;6.30;99.90;;;;;;5090218;28;19969;-81
2020/12/24 12:39:49;;;;;;;;;;;6.40;99.90;;;;;;5089081;28;20403;-81
2020/12/24 12:42:14;;;;;;;;;;;6.30;99.90;;;;;;5089644;28;19924;-81
2020/12/24 12:44:40;;;;;;;;;;;6.30;99.90;;;;;;5091637;28;20452;-81
2020/12/24 12:47:06;;;;;;;;;;;6.30;99.90;;;;;;5124768;27;19926;-82
2020/12/24 12:49:31;;;;;;;;;;;6.30;99.90;;;;;;5124170;27;19931;-81
2020/12/24 12:52:00;;;;;;;;;;;6.40;99.90;;;;;;5090391;28;19920;-82
2020/12/24 12:54:26;;;;;;;;;;;6.30;99.90;;;;;;5089479;28;20386;-81
2020/12/24 12:56:52;;;;;;;;;;;6.30;99.90;;;;;;5090487;28;20027;-80
2020/12/24 12:59:18;;;;;;;;;;;6.40;99.70;;;;;;5090193;28;20023;-80
2020/12/24 13:01:43;;;;;;;;;;;6.40;98.80;;;;;;5079448;28;20012;-80
2020/12/24 13:04:10;;;;;;;;;;;6.30;98.10;;;;;;5086855;28;19919;-80
2020/12/24 13:06:36;;;;;;;;;;;6.30;98.50;;;;;;5104230;28;20607;-80
2020/12/24 13:09:02;;;;;;;;;;;6.30;98.30;;;;;;5090161;28;19919;-80
2020/12/24 13:11:28;;;;;;;;;;;6.40;99.10;;;;;;5090027;28;20382;-80
2020/12/24 13:13:53;;;;;;;;;;;6.30;97.90;;;;;;5089762;28;19920;-80
2020/12/24 13:16:26;;;;;;;;;;;6.20;98.30;;;;;;5086721;28;19922;-81
2020/12/24 13:18:51;;;;;;;;;;;6.20;98.60;;;;;;5088692;28;19915;-80
2020/12/24 13:21:17;;;;;;;;;;;6.20;99.90;;;;;;5121736;27;19966;-82
2020/12/24 13:23:43;;;;;;;;;;;6.20;99.90;;;;;;5089451;28;19916;-80
2020/12/24 13:26:08;;;;;;;;;;;6.20;99.40;;;;;;5105456;28;19920;-80
2020/12/24 13:28:34;;;;;;;;;;;6.40;98.70;;;;;;5089133;28;19982;-80
2020/12/24 13:31:00;;;;;;;;;;;6.40;98.40;;;;;;5090392;28;19962;-80
2020/12/24 13:33:26;;;;;;;;;;;6.40;98.90;;;;;;5090088;28;19923;-80
2020/12/24 13:35:52;;;;;;;;;;;6.30;99.20;;;;;;5089917;28;20419;-80
2020/12/24 13:38:18;;;;;;;;;;;6.30;98.40;;;;;;5090491;28;19923;-80
2020/12/24 13:40:43;;;;;;;;;;;6.30;99.20;;;;;;5088783;28;19915;-80
2020/12/24 13:43:09;;;;;;;;;;;6.20;99.00;;;;;;5119996;27;19945;-80
2020/12/24 13:45:35;;;;;;;;;;;6.20;99.50;;;;;;5105025;28;19951;-80
2020/12/24 13:48:01;;;;;;;;;;;6.20;99.90;;;;;;5091268;28;20010;-80
2020/12/24 13:50:26;;;;;;;;;;;6.10;99.30;;;;;;5082315;28;19965;-81
2020/12/24 13:52:52;;;;;;;;;;;6.10;99.90;;;;;;5093424;28;19920;-80
2020/12/24 13:55:19;;;;;;;;;;;6.20;99.30;;;;;;5089085;28;19916;-80
2020/12/24 13:57:45;;;;;;;;;;;6.20;99.70;;;;;;5092984;28;19930;-80
2020/12/24 14:00:11;;;;;;;;;;;6.10;99.10;;;;;;5093318;28;20004;-80
2020/12/24 14:02:37;;;;;;;;;;;6.40;98.80;;;;;;5093793;28;19965;-80
2020/12/24 14:05:02;;;;;;;;;;;6.20;98.50;;;;;;5120847;27;19924;-80
2020/12/24 14:07:28;;;;;;;;;;;6.20;98.20;;;;;;5092770;28;19942;-80
2020/12/24 14:09:54;;;;;;;;;;;6.20;98.10;;;;;;5096235;28;19916;-80
2020/12/24 14:12:20;;;;;;;;;;;6.20;97.80;;;;;;5095917;28;19920;-80
2020/12/24 14:14:46;;;;;;;;;;;6.10;98.10;;;;;;5091371;28;20275;-80
2020/12/24 14:17:12;;;;;;;;;;;6.00;97.90;;;;;;5095133;28;20351;-80
2020/12/24 14:19:38;;;;;;;;;;;5.90;98.20;;;;;;5120821;27;20280;-80
2020/12/24 14:22:04;;;;;;;;;;;5.80;98.60;;;;;;5089259;28;20039;-80
2020/12/24 14:24:30;;;;;;;;;;;5.80;99.20;;;;;;5093130;28;20010;-80
2020/12/24 14:26:56;;;;;;;;;;;5.70;98.80;;;;;;5085414;28;19928;-80
2020/12/24 14:29:22;;;;;;;;;;;5.80;99.80;;;;;;5093557;28;19943;-80